sensor_id;sensor_type;location;lat;lon;timestamp;pressure;altitude;pressure_sealevel;temperature;humidity
7930;BME280;4010;42.698;23.124;2022-08-21T00:01:31;2317.88;;;-140.64;100.00
7930;BME280;4010;42.698;23.124;2022-08-21T00:03:58;2317.88;;;-140.64;100.00
7930;BME280;4010;42.698;23.124;2022-08-21T00:06:31;2572.47;;;-140.64;100.00
7930;BME280;4010;42.698;23.124;2022-08-21T00:08:59;2572.47;;;-140.64;100.00
7930;BME280;4010;42.698;23.124;2022-08-21T00:11:25;2572.47;;;-140.64;100.00
7930;BME280;4010;42.698;23.124;2022-08-21T00:13:53;2063.31;;;-140.64;100.00
7930;BME280;4010;42.698;23.124;2022-08-21T00:16:20;1808.75;;;-140.64;100.00
7930;BME280;4010;42.698;23.124;2022-08-21T00:18:46;2063.31;;;-140.64;100.00
7930;BME280;4010;42.698;23.124;2022-08-21T00:21:13;1808.75;;;-140.64;100.00
7930;BME280;4010;42.698;23.124;2022-08-21T00:23:42;1554.22;;;-140.64;100.00
7930;BME280;4010;42.698;23.124;2022-08-21T00:26:09;1299.69;;;-140.64;100.00
7930;BME280;4010;42.698;23.124;2022-08-21T00:28:36;1045.22;;;-140.64;100.00
7930;BME280;4010;42.698;23.124;2022-08-21T00:31:03;1299.69;;;-140.64;100.00
7930;BME280;4010;42.698;23.124;2022-08-21T00:33:30;1045.22;;;-140.64;100.00
7930;BME280;4010;42.698;23.124;2022-08-21T00:35:57;1045.22;;;-140.64;100.00
7930;BME280;4010;42.698;23.124;2022-08-21T00:38:24;1045.22;;;-140.64;100.00
7930;BME280;4010;42.698;23.124;2022-08-21T00:40:53;1045.22;;;-140.64;100.00
7930;BME280;4010;42.698;23.124;2022-08-21T00:43:24;790.75;;;-140.64;100.00
7930;BME280;4010;42.698;23.124;2022-08-21T00:45:53;790.75;;;-140.64;100.00
7930;BME280;4010;42.698;23.124;2022-08-21T00:48:21;790.75;;;-140.64;100.00
7930;BME280;4010;42.698;23.124;2022-08-21T00:50:52;1299.69;;;-140.64;100.00
7930;BME280;4010;42.698;23.124;2022-08-21T00:53:21;1554.22;;;-140.64;100.00
7930;BME280;4010;42.698;23.124;2022-08-21T00:55:49;1554.22;;;-140.64;100.00
7930;BME280;4010;42.698;23.124;2022-08-21T00:58:18;1808.75;;;-140.64;100.00
7930;BME280;4010;42.698;23.124;2022-08-21T01:00:50;1554.22;;;-140.64;100.00
7930;BME280;4010;42.698;23.124;2022-08-21T01:03:20;1808.75;;;-140.64;100.00
7930;BME280;4010;42.698;23.124;2022-08-21T01:05:47;2063.31;;;-140.64;100.00
7930;BME280;4010;42.698;23.124;2022-08-21T01:08:15;2063.31;;;-140.64;100.00
7930;BME280;4010;42.698;23.124;2022-08-21T01:10:44;2063.31;;;-140.64;100.00
7930;BME280;4010;42.698;23.124;2022-08-21T01:13:14;2063.31;;;-140.64;100.00
7930;BME280;4010;42.698;23.124;2022-08-21T01:15:46;2317.88;;;-140.64;100.00
7930;BME280;4010;42.698;23.124;2022-08-21T01:18:15;2317.88;;;-140.64;100.00
7930;BME280;4010;42.698;23.124;2022-08-21T01:20:44;2063.31;;;-140.64;100.00
7930;BME280;4010;42.698;23.124;2022-08-21T01:23:13;2063.31;;;-140.64;100.00
7930;BME280;4010;42.698;23.124;2022-08-21T01:25:40;1808.75;;;-140.64;100.00
7930;BME280;4010;42.698;23.124;2022-08-21T01:28:11;1808.75;;;-140.64;100.00
7930;BME280;4010;42.698;23.124;2022-08-21T01:30:39;1554.22;;;-140.64;100.00
7930;BME280;4010;42.698;23.124;2022-08-21T01:33:06;1299.69;;;-140.64;100.00
7930;BME280;4010;42.698;23.124;2022-08-21T01:35:33;1299.69;;;-140.64;100.00
7930;BME280;4010;42.698;23.124;2022-08-21T01:38:00;1299.69;;;-140.64;100.00
7930;BME280;4010;42.698;23.124;2022-08-21T01:40:28;1299.69;;;-140.64;100.00
7930;BME280;4010;42.698;23.124;2022-08-21T01:42:55;790.75;;;-140.64;100.00
7930;BME280;4010;42.698;23.124;2022-08-21T01:45:22;1045.22;;;-140.64;100.00
7930;BME280;4010;42.698;23.124;2022-08-21T01:47:48;536.28;;;-140.64;100.00
7930;BME280;4010;42.698;23.124;2022-08-21T01:50:18;790.75;;;-140.64;100.00
7930;BME280;4010;42.698;23.124;2022-08-21T01:52:45;790.75;;;-140.64;100.00
7930;BME280;4010;42.698;23.124;2022-08-21T01:55:13;281.84;;;-140.64;100.00
7930;BME280;4010;42.698;23.124;2022-08-21T01:57:42;790.75;;;-140.64;100.00
7930;BME280;4010;42.698;23.124;2022-08-21T02:00:12;536.28;;;-140.64;100.00
7930;BME280;4010;42.698;23.124;2022-08-21T02:02:40;790.75;;;-140.64;100.00
7930;BME280;4010;42.698;23.124;2022-08-21T02:05:09;790.75;;;-140.64;100.00
7930;BME280;4010;42.698;23.124;2022-08-21T02:07:37;536.28;;;-140.64;100.00
7930;BME280;4010;42.698;23.124;2022-08-21T02:10:06;790.75;;;-140.64;100.00
7930;BME280;4010;42.698;23.124;2022-08-21T02:12:33;536.28;;;-140.64;100.00
7930;BME280;4010;42.698;23.124;2022-08-21T02:15:02;536.28;;;-140.64;100.00
7930;BME280;4010;42.698;23.124;2022-08-21T02:17:37;790.75;;;-140.64;100.00
7930;BME280;4010;42.698;23.124;2022-08-21T02:20:05;790.75;;;-140.64;100.00
7930;BME280;4010;42.698;23.124;2022-08-21T02:22:32;790.75;;;-140.64;100.00
7930;BME280;4010;42.698;23.124;2022-08-21T02:24:58;790.75;;;-140.64;100.00
7930;BME280;4010;42.698;23.124;2022-08-21T02:27:25;790.75;;;-140.64;100.00
7930;BME280;4010;42.698;23.124;2022-08-21T02:29:53;1045.22;;;-140.64;100.00
7930;BME280;4010;42.698;23.124;2022-08-21T02:32:21;790.75;;;-140.64;100.00
7930;BME280;4010;42.698;23.124;2022-08-21T02:34:48;1045.22;;;-140.64;100.00
7930;BME280;4010;42.698;23.124;2022-08-21T02:37:15;1045.22;;;-140.64;100.00
7930;BME280;4010;42.698;23.124;2022-08-21T02:39:42;1299.69;;;-140.64;100.00
7930;BME280;4010;42.698;23.124;2022-08-21T02:42:08;1299.69;;;-140.64;100.00
7930;BME280;4010;42.698;23.124;2022-08-21T02:44:35;1554.22;;;-140.64;100.00
7930;BME280;4010;42.698;23.124;2022-08-21T02:47:02;1808.75;;;-140.64;100.00
7930;BME280;4010;42.698;23.124;2022-08-21T02:49:30;1554.22;;;-140.64;100.00
7930;BME280;4010;42.698;23.124;2022-08-21T02:51:57;1808.75;;;-140.64;100.00
7930;BME280;4010;42.698;23.124;2022-08-21T02:54:23;1808.75;;;-140.64;100.00
7930;BME280;4010;42.698;23.124;2022-08-21T02:56:50;1808.75;;;-140.64;100.00
7930;BME280;4010;42.698;23.124;2022-08-21T02:59:17;1554.22;;;-140.64;100.00
7930;BME280;4010;42.698;23.124;2022-08-21T03:01:44;1045.22;;;-140.64;100.00
7930;BME280;4010;42.698;23.124;2022-08-21T03:04:10;790.75;;;-140.64;100.00
7930;BME280;4010;42.698;23.124;2022-08-21T03:06:38;536.28;;;-140.64;100.00
7930;BME280;4010;42.698;23.124;2022-08-21T03:09:05;27.44;;;-140.64;100.00
7930;BME280;4010;42.698;23.124;2022-08-21T03:11:32;281.84;;;-140.64;100.00
7930;BME280;4010;42.698;23.124;2022-08-21T03:13:59;281.84;;;-140.64;100.00
7930;BME280;4010;42.698;23.124;2022-08-21T03:16:26;281.84;;;-140.64;100.00
7930;BME280;4010;42.698;23.124;2022-08-21T03:18:53;27.44;;;-140.64;100.00
7930;BME280;4010;42.698;23.124;2022-08-21T03:21:20;27.44;;;-140.64;100.00
7930;BME280;4010;42.698;23.124;2022-08-21T03:23:48;27.44;;;-140.64;100.00
7930;BME280;4010;42.698;23.124;2022-08-21T03:26:14;27.44;;;-140.64;100.00
7930;BME280;4010;42.698;23.124;2022-08-21T03:28:41;27.44;;;-140.64;100.00
7930;BME280;4010;42.698;23.124;2022-08-21T03:31:08;-226.97;;;-140.64;100.00
7930;BME280;4010;42.698;23.124;2022-08-21T03:33:35;-226.97;;;-140.64;100.00
7930;BME280;4010;42.698;23.124;2022-08-21T03:36:05;27.44;;;-140.64;100.00
7930;BME280;4010;42.698;23.124;2022-08-21T03:38:33;27.44;;;-140.64;100.00
7930;BME280;4010;42.698;23.124;2022-08-21T03:41:02;27.44;;;-140.64;100.00
7930;BME280;4010;42.698;23.124;2022-08-21T03:43:30;27.44;;;-140.64;100.00
7930;BME280;4010;42.698;23.124;2022-08-21T03:45:57;281.84;;;-140.64;100.00
7930;BME280;4010;42.698;23.124;2022-08-21T03:48:24;27.44;;;-140.64;100.00
7930;BME280;4010;42.698;23.124;2022-08-21T03:50:52;281.84;;;-140.64;100.00
7930;BME280;4010;42.698;23.124;2022-08-21T03:53:19;281.84;;;-140.64;100.00
7930;BME280;4010;42.698;23.124;2022-08-21T03:55:48;281.84;;;-140.64;100.00
7930;BME280;4010;42.698;23.124;2022-08-21T03:58:18;536.28;;;-140.64;100.00
7930;BME280;4010;42.698;23.124;2022-08-21T04:00:47;536.28;;;-140.64;100.00
7930;BME280;4010;42.698;23.124;2022-08-21T04:03:15;536.28;;;-140.64;100.00
7930;BME280;4010;42.698;23.124;2022-08-21T04:05:42;281.84;;;-140.64;100.00
7930;BME280;4010;42.698;23.124;2022-08-21T04:08:11;27.44;;;-140.64;100.00
7930;BME280;4010;42.698;23.124;2022-08-21T04:10:39;27.44;;;-140.64;100.00
7930;BME280;4010;42.698;23.124;2022-08-21T04:13:07;-226.97;;;-140.64;100.00
7930;BME280;4010;42.698;23.124;2022-08-21T04:15:35;-481.34;;;-140.64;100.00
7930;BME280;4010;42.698;23.124;2022-08-21T04:18:02;-990.03;;;-140.64;100.00
7930;BME280;4010;42.698;23.124;2022-08-21T04:20:30;-1498.63;;;-140.64;100.00
7930;BME280;4010;42.698;23.124;2022-08-21T04:22:56;-1498.63;;;-140.64;100.00
7930;BME280;4010;42.698;23.124;2022-08-21T04:25:23;-1498.63;;;-140.64;100.00
7930;BME280;4010;42.698;23.124;2022-08-21T04:27:50;-2007.16;;;-140.64;100.00
7930;BME280;4010;42.698;23.124;2022-08-21T04:30:17;-2007.16;;;-140.64;100.00
7930;BME280;4010;42.698;23.124;2022-08-21T04:32:47;-2007.16;;;-140.64;100.00
7930;BME280;4010;42.698;23.124;2022-08-21T04:35:16;-1752.91;;;-140.64;100.00
7930;BME280;4010;42.698;23.124;2022-08-21T04:37:43;-2007.16;;;-140.64;100.00
7930;BME280;4010;42.698;23.124;2022-08-21T04:40:11;-2007.16;;;-140.64;100.00
7930;BME280;4010;42.698;23.124;2022-08-21T04:42:42;-2261.41;;;-140.64;100.00
7930;BME280;4010;42.698;23.124;2022-08-21T04:45:13;-2261.41;;;-140.64;100.00
7930;BME280;4010;42.698;23.124;2022-08-21T04:47:40;-2515.63;;;-140.64;100.00
7930;BME280;4010;42.698;23.124;2022-08-21T04:50:09;-2769.81;;;-140.64;100.00
7930;BME280;4010;42.698;23.124;2022-08-21T04:52:35;-2769.81;;;-140.64;100.00
7930;BME280;4010;42.698;23.124;2022-08-21T04:55:03;-3278.16;;;-140.64;100.00
7930;BME280;4010;42.698;23.124;2022-08-21T04:57:30;-3532.28;;;-140.64;100.00
7930;BME280;4010;42.698;23.124;2022-08-21T04:59:57;-3278.16;;;-140.64;100.00
7930;BME280;4010;42.698;23.124;2022-08-21T05:02:24;-3278.16;;;-140.64;100.00
7930;BME280;4010;42.698;23.124;2022-08-21T05:04:53;-3532.28;;;-140.64;100.00
7930;BME280;4010;42.698;23.124;2022-08-21T05:07:24;-3786.41;;;-140.64;100.00
7930;BME280;4010;42.698;23.124;2022-08-21T05:09:52;-4040.50;;;-140.64;100.00
7930;BME280;4010;42.698;23.124;2022-08-21T05:12:18;-4294.59;;;-140.64;100.00
7930;BME280;4010;42.698;23.124;2022-08-21T05:14:45;-4548.63;;;-140.64;100.00
7930;BME280;4010;42.698;23.124;2022-08-21T05:17:12;-5310.69;;;-140.64;100.00
7930;BME280;4010;42.698;23.124;2022-08-21T05:19:39;-6072.56;;;-140.64;100.00
7930;BME280;4010;42.698;23.124;2022-08-21T05:22:06;-6072.56;;;-140.64;100.00
7930;BME280;4010;42.698;23.124;2022-08-21T05:24:35;-5564.69;;;-140.64;100.00
7930;BME280;4010;42.698;23.124;2022-08-21T05:27:16;-2261.41;;;-140.64;100.00
7930;BME280;4010;42.698;23.124;2022-08-21T05:29:43;1299.69;;;-140.64;100.00
7930;BME280;4010;42.698;23.124;2022-08-21T05:32:10;7668.44;;;-140.64;100.00
7930;BME280;4010;42.698;23.124;2022-08-21T05:34:38;9709.03;;;-140.64;100.00
7930;BME280;4010;42.698;23.124;2022-08-21T05:37:04;14305.00;;;-140.64;100.00
7930;BME280;4010;42.698;23.124;2022-08-21T05:39:32;14816.06;;;-140.64;100.00
7930;BME280;4010;42.698;23.124;2022-08-21T05:42:00;12006.22;;;-140.64;100.00
7930;BME280;4010;42.698;23.124;2022-08-21T05:44:27;8178.47;;;-140.64;100.00
7930;BME280;4010;42.698;23.124;2022-08-21T05:46:53;9709.03;;;-140.64;100.00
7930;BME280;4010;42.698;23.124;2022-08-21T05:49:20;13027.72;;;-140.64;100.00
7930;BME280;4010;42.698;23.124;2022-08-21T05:51:47;12261.56;;;-140.64;100.00
7930;BME280;4010;42.698;23.124;2022-08-21T05:54:13;16094.06;;;-140.64;100.00
7930;BME280;4010;42.698;23.124;2022-08-21T05:56:40;55180.50;;;-140.64;100.00
7930;BME280;4010;42.698;23.124;2022-08-21T05:59:11;118349.16;;;-140.64;100.00
7930;BME280;4010;42.698;23.124;2022-08-21T06:01:38;118349.16;;;-140.64;100.00
7930;BME280;4010;42.698;23.124;2022-08-21T06:04:05;118349.16;;;-140.64;100.00
7930;BME280;4010;42.698;23.124;2022-08-21T06:06:32;118349.16;;;-140.64;100.00
7930;BME280;4010;42.698;23.124;2022-08-21T06:08:59;118349.16;;;-140.64;100.00
7930;BME280;4010;42.698;23.124;2022-08-21T06:11:26;118349.16;;;-140.64;100.00
7930;BME280;4010;42.698;23.124;2022-08-21T06:13:53;118349.16;;;-140.64;100.00
7930;BME280;4010;42.698;23.124;2022-08-21T06:16:21;118349.16;;;-140.64;100.00
7930;BME280;4010;42.698;23.124;2022-08-21T06:18:48;118349.16;;;-140.64;100.00
7930;BME280;4010;42.698;23.124;2022-08-21T06:21:15;118349.16;;;-140.64;100.00
7930;BME280;4010;42.698;23.124;2022-08-21T06:23:42;118349.16;;;-140.64;100.00
7930;BME280;4010;42.698;23.124;2022-08-21T06:26:11;118349.16;;;-140.64;100.00
7930;BME280;4010;42.698;23.124;2022-08-21T06:28:38;118349.16;;;-140.64;100.00
7930;BME280;4010;42.698;23.124;2022-08-21T06:31:10;118349.16;;;-140.64;100.00
7930;BME280;4010;42.698;23.124;2022-08-21T06:33:38;118349.16;;;-140.64;100.00
7930;BME280;4010;42.698;23.124;2022-08-21T06:36:05;118349.16;;;-140.64;100.00
7930;BME280;4010;42.698;23.124;2022-08-21T06:38:32;118349.16;;;-140.64;100.00
7930;BME280;4010;42.698;23.124;2022-08-21T06:40:59;118349.16;;;-140.64;100.00
7930;BME280;4010;42.698;23.124;2022-08-21T06:43:26;118349.16;;;-140.64;100.00
7930;BME280;4010;42.698;23.124;2022-08-21T06:45:53;118349.16;;;-140.64;100.00
7930;BME280;4010;42.698;23.124;2022-08-21T06:48:20;118349.16;;;-140.64;100.00
7930;BME280;4010;42.698;23.124;2022-08-21T06:50:48;118349.16;;;-140.64;100.00
7930;BME280;4010;42.698;23.124;2022-08-21T06:53:17;118349.16;;;-140.64;100.00
7930;BME280;4010;42.698;23.124;2022-08-21T06:55:45;118349.16;;;-140.64;100.00
7930;BME280;4010;42.698;23.124;2022-08-21T06:58:12;118349.16;;;-140.64;100.00
7930;BME280;4010;42.698;23.124;2022-08-21T07:00:40;118349.16;;;-140.64;100.00
7930;BME280;4010;42.698;23.124;2022-08-21T07:03:16;118349.16;;;-140.64;100.00
7930;BME280;4010;42.698;23.124;2022-08-21T07:05:43;118349.16;;;-140.64;100.00
7930;BME280;4010;42.698;23.124;2022-08-21T07:08:11;118349.16;;;-140.64;100.00
7930;BME280;4010;42.698;23.124;2022-08-21T07:10:38;118349.16;;;-140.64;100.00
7930;BME280;4010;42.698;23.124;2022-08-21T07:13:05;118349.16;;;-140.64;100.00
7930;BME280;4010;42.698;23.124;2022-08-21T07:15:31;118349.16;;;-140.64;100.00
7930;BME280;4010;42.698;23.124;2022-08-21T07:17:59;118349.16;;;-140.64;100.00
7930;BME280;4010;42.698;23.124;2022-08-21T07:20:26;118349.16;;;-140.64;100.00
7930;BME280;4010;42.698;23.124;2022-08-21T07:22:54;118349.16;;;-140.64;100.00
7930;BME280;4010;42.698;23.124;2022-08-21T07:25:22;118349.16;;;-140.64;100.00
7930;BME280;4010;42.698;23.124;2022-08-21T07:27:48;118349.16;;;-140.64;100.00
7930;BME280;4010;42.698;23.124;2022-08-21T07:30:15;118349.16;;;-140.64;100.00
7930;BME280;4010;42.698;23.124;2022-08-21T07:32:42;118349.16;;;-140.64;100.00
7930;BME280;4010;42.698;23.124;2022-08-21T07:35:09;118349.16;;;-140.64;100.00
7930;BME280;4010;42.698;23.124;2022-08-21T07:37:36;118349.16;;;-140.64;100.00
7930;BME280;4010;42.698;23.124;2022-08-21T07:40:04;118349.16;;;-140.64;100.00
7930;BME280;4010;42.698;23.124;2022-08-21T07:42:32;118349.16;;;-140.64;100.00
7930;BME280;4010;42.698;23.124;2022-08-21T07:44:59;118349.16;;;-140.64;100.00
7930;BME280;4010;42.698;23.124;2022-08-21T07:47:26;118349.16;;;-140.64;100.00
7930;BME280;4010;42.698;23.124;2022-08-21T07:49:52;118349.16;;;-140.64;100.00
7930;BME280;4010;42.698;23.124;2022-08-21T07:52:19;118349.16;;;-140.64;100.00
7930;BME280;4010;42.698;23.124;2022-08-21T07:54:46;118349.16;;;-140.64;100.00
7930;BME280;4010;42.698;23.124;2022-08-21T07:57:13;118349.16;;;-140.64;100.00
7930;BME280;4010;42.698;23.124;2022-08-21T07:59:41;118349.16;;;-140.64;100.00
7930;BME280;4010;42.698;23.124;2022-08-21T08:02:07;118349.16;;;-140.64;100.00
7930;BME280;4010;42.698;23.124;2022-08-21T08:04:34;118349.16;;;-140.64;100.00
7930;BME280;4010;42.698;23.124;2022-08-21T08:07:01;118349.16;;;-140.64;100.00
7930;BME280;4010;42.698;23.124;2022-08-21T08:09:27;118349.16;;;-140.64;100.00
7930;BME280;4010;42.698;23.124;2022-08-21T08:11:54;118349.16;;;-140.64;100.00
7930;BME280;4010;42.698;23.124;2022-08-21T08:14:21;118349.16;;;-140.64;100.00
7930;BME280;4010;42.698;23.124;2022-08-21T08:16:49;118349.16;;;-140.64;100.00
7930;BME280;4010;42.698;23.124;2022-08-21T08:19:16;118349.16;;;-140.64;100.00
7930;BME280;4010;42.698;23.124;2022-08-21T08:21:43;118349.16;;;-140.64;100.00
7930;BME280;4010;42.698;23.124;2022-08-21T08:24:09;118349.16;;;-140.64;100.00
7930;BME280;4010;42.698;23.124;2022-08-21T08:26:36;118349.16;;;-140.64;100.00
7930;BME280;4010;42.698;23.124;2022-08-21T08:29:03;118349.16;;;-140.64;100.00
7930;BME280;4010;42.698;23.124;2022-08-21T08:31:30;118349.16;;;-140.64;100.00
7930;BME280;4010;42.698;23.124;2022-08-21T08:33:58;118349.16;;;-140.64;100.00
7930;BME280;4010;42.698;23.124;2022-08-21T08:36:32;118349.16;;;-140.64;100.00
7930;BME280;4010;42.698;23.124;2022-08-21T08:38:59;118349.16;;;-140.64;100.00
7930;BME280;4010;42.698;23.124;2022-08-21T08:41:27;118349.16;;;-140.64;100.00
7930;BME280;4010;42.698;23.124;2022-08-21T08:44:00;118349.16;;;-140.64;100.00
7930;BME280;4010;42.698;23.124;2022-08-21T08:46:33;118349.16;;;-140.64;100.00
7930;BME280;4010;42.698;23.124;2022-08-21T08:49:08;118349.16;;;-140.64;100.00
7930;BME280;4010;42.698;23.124;2022-08-21T08:51:42;118349.16;;;-140.64;100.00
7930;BME280;4010;42.698;23.124;2022-08-21T08:54:14;118349.16;;;-140.64;100.00
7930;BME280;4010;42.698;23.124;2022-08-21T08:56:42;118349.16;;;-140.64;100.00
7930;BME280;4010;42.698;23.124;2022-08-21T08:59:14;118349.16;;;-140.64;100.00
7930;BME280;4010;42.698;23.124;2022-08-21T09:01:42;118349.16;;;-140.64;100.00
7930;BME280;4010;42.698;23.124;2022-08-21T09:04:11;118349.16;;;-140.64;100.00
7930;BME280;4010;42.698;23.124;2022-08-21T09:06:51;118349.16;;;-140.64;100.00
7930;BME280;4010;42.698;23.124;2022-08-21T09:09:28;118349.16;;;-140.64;100.00
7930;BME280;4010;42.698;23.124;2022-08-21T09:12:00;118349.16;;;-140.64;100.00
7930;BME280;4010;42.698;23.124;2022-08-21T09:14:40;118349.16;;;-140.64;100.00
7930;BME280;4010;42.698;23.124;2022-08-21T09:17:22;118349.16;;;-140.64;100.00
7930;BME280;4010;42.698;23.124;2022-08-21T09:20:00;118349.16;;;-140.64;100.00
7930;BME280;4010;42.698;23.124;2022-08-21T09:22:39;118349.16;;;-140.64;100.00
7930;BME280;4010;42.698;23.124;2022-08-21T09:25:12;118349.16;;;-140.64;100.00
7930;BME280;4010;42.698;23.124;2022-08-21T09:27:41;118349.16;;;-140.64;100.00
7930;BME280;4010;42.698;23.124;2022-08-21T09:30:09;118349.16;;;-140.64;100.00
7930;BME280;4010;42.698;23.124;2022-08-21T09:32:38;118349.16;;;-140.64;100.00
7930;BME280;4010;42.698;23.124;2022-08-21T09:35:09;118349.16;;;-140.64;100.00
7930;BME280;4010;42.698;23.124;2022-08-21T09:37:47;118349.16;;;-140.64;100.00
7930;BME280;4010;42.698;23.124;2022-08-21T09:40:20;118349.16;;;-140.64;100.00
7930;BME280;4010;42.698;23.124;2022-08-21T09:42:55;118349.16;;;-140.64;100.00
7930;BME280;4010;42.698;23.124;2022-08-21T09:45:22;118349.16;;;-140.64;100.00
7930;BME280;4010;42.698;23.124;2022-08-21T09:47:49;118349.16;;;-140.64;100.00
7930;BME280;4010;42.698;23.124;2022-08-21T09:50:19;118349.16;;;-140.64;100.00
7930;BME280;4010;42.698;23.124;2022-08-21T09:52:50;118349.16;;;-140.64;100.00
7930;BME280;4010;42.698;23.124;2022-08-21T09:55:24;118349.16;;;-140.64;100.00
7930;BME280;4010;42.698;23.124;2022-08-21T09:58:11;118349.16;;;-140.64;100.00
7930;BME280;4010;42.698;23.124;2022-08-21T10:00:38;118349.16;;;-140.64;100.00
7930;BME280;4010;42.698;23.124;2022-08-21T10:03:14;118349.16;;;-140.64;100.00
7930;BME280;4010;42.698;23.124;2022-08-21T10:05:54;118349.16;;;-140.64;100.00
7930;BME280;4010;42.698;23.124;2022-08-21T10:08:22;118349.16;;;-140.64;100.00
7930;BME280;4010;42.698;23.124;2022-08-21T10:10:52;118349.16;;;-140.64;100.00
7930;BME280;4010;42.698;23.124;2022-08-21T10:13:24;118349.16;;;-140.64;100.00
7930;BME280;4010;42.698;23.124;2022-08-21T10:16:06;118349.16;;;-140.64;100.00
7930;BME280;4010;42.698;23.124;2022-08-21T10:18:41;118349.16;;;-140.64;100.00
7930;BME280;4010;42.698;23.124;2022-08-21T10:21:16;118349.16;;;-140.64;100.00
7930;BME280;4010;42.698;23.124;2022-08-21T10:24:00;118349.16;;;-140.64;100.00
7930;BME280;4010;42.698;23.124;2022-08-21T10:26:41;118349.16;;;-140.64;100.00
7930;BME280;4010;42.698;23.124;2022-08-21T10:29:19;118349.16;;;-140.64;100.00
7930;BME280;4010;42.698;23.124;2022-08-21T10:31:55;118349.16;;;-140.64;100.00
7930;BME280;4010;42.698;23.124;2022-08-21T10:34:36;118349.16;;;-140.64;100.00
7930;BME280;4010;42.698;23.124;2022-08-21T10:37:19;118349.16;;;-140.64;100.00
7930;BME280;4010;42.698;23.124;2022-08-21T10:40:01;118349.16;;;-140.64;100.00
7930;BME280;4010;42.698;23.124;2022-08-21T10:42:35;118349.16;;;-140.64;100.00
7930;BME280;4010;42.698;23.124;2022-08-21T10:45:10;118349.16;;;-140.64;100.00
7930;BME280;4010;42.698;23.124;2022-08-21T10:47:44;118349.16;;;-140.64;100.00
7930;BME280;4010;42.698;23.124;2022-08-21T10:50:19;118349.16;;;-140.64;100.00
7930;BME280;4010;42.698;23.124;2022-08-21T10:53:08;118349.16;;;-140.64;100.00
7930;BME280;4010;42.698;23.124;2022-08-21T10:55:41;118349.16;;;-140.64;100.00
7930;BME280;4010;42.698;23.124;2022-08-21T10:58:11;118349.16;;;-140.64;100.00
7930;BME280;4010;42.698;23.124;2022-08-21T11:00:43;118349.16;;;-140.64;100.00
7930;BME280;4010;42.698;23.124;2022-08-21T11:03:16;118349.16;;;-140.64;100.00
7930;BME280;4010;42.698;23.124;2022-08-21T11:05:47;118349.16;;;-140.64;100.00
7930;BME280;4010;42.698;23.124;2022-08-21T11:08:20;118349.16;;;-140.64;100.00
7930;BME280;4010;42.698;23.124;2022-08-21T11:10:52;118349.16;;;-140.64;99.09
7930;BME280;4010;42.698;23.124;2022-08-21T11:13:29;118349.16;;;-140.64;100.00
7930;BME280;4010;42.698;23.124;2022-08-21T11:16:03;118349.16;;;-140.64;100.00
7930;BME280;4010;42.698;23.124;2022-08-21T11:18:34;118349.16;;;-140.64;100.00
7930;BME280;4010;42.698;23.124;2022-08-21T11:21:11;118349.16;;;-140.64;100.00
7930;BME280;4010;42.698;23.124;2022-08-21T11:23:48;118349.16;;;-140.64;100.00
7930;BME280;4010;42.698;23.124;2022-08-21T11:26:19;118349.16;;;-140.64;100.00
7930;BME280;4010;42.698;23.124;2022-08-21T11:28:52;118349.16;;;-140.64;100.00
7930;BME280;4010;42.698;23.124;2022-08-21T11:31:35;118349.16;;;-140.64;99.25
7930;BME280;4010;42.698;23.124;2022-08-21T11:34:23;118349.16;;;-140.64;100.00
7930;BME280;4010;42.698;23.124;2022-08-21T11:37:04;118349.16;;;-140.64;100.00
7930;BME280;4010;42.698;23.124;2022-08-21T11:39:38;118349.16;;;-140.64;100.00
7930;BME280;4010;42.698;23.124;2022-08-21T11:42:15;118349.16;;;-140.64;100.00
7930;BME280;4010;42.698;23.124;2022-08-21T11:44:52;118349.16;;;-140.64;100.00
7930;BME280;4010;42.698;23.124;2022-08-21T11:47:27;118349.16;;;-140.64;100.00
7930;BME280;4010;42.698;23.124;2022-08-21T11:50:07;118349.16;;;-140.64;100.00
7930;BME280;4010;42.698;23.124;2022-08-21T11:52:43;118349.16;;;-140.64;100.00
7930;BME280;4010;42.698;23.124;2022-08-21T11:55:16;118349.16;;;-140.64;100.00
7930;BME280;4010;42.698;23.124;2022-08-21T11:57:50;118349.16;;;-140.64;100.00
7930;BME280;4010;42.698;23.124;2022-08-21T12:00:22;118349.16;;;-140.64;100.00
7930;BME280;4010;42.698;23.124;2022-08-21T12:02:54;118349.16;;;-140.64;100.00
7930;BME280;4010;42.698;23.124;2022-08-21T12:05:29;118349.16;;;-140.64;100.00
7930;BME280;4010;42.698;23.124;2022-08-21T12:08:04;118349.16;;;-140.64;100.00
7930;BME280;4010;42.698;23.124;2022-08-21T12:10:35;118349.16;;;-140.64;100.00
7930;BME280;4010;42.698;23.124;2022-08-21T12:13:08;118349.16;;;-140.64;100.00
7930;BME280;4010;42.698;23.124;2022-08-21T12:15:37;118349.16;;;-140.64;100.00
7930;BME280;4010;42.698;23.124;2022-08-21T12:18:06;118349.16;;;-140.64;100.00
7930;BME280;4010;42.698;23.124;2022-08-21T12:20:43;118349.16;;;-140.64;100.00
7930;BME280;4010;42.698;23.124;2022-08-21T12:23:23;118349.16;;;-140.64;100.00
7930;BME280;4010;42.698;23.124;2022-08-21T12:26:03;118349.16;;;-140.64;100.00
7930;BME280;4010;42.698;23.124;2022-08-21T12:28:30;118349.16;;;-140.64;100.00
7930;BME280;4010;42.698;23.124;2022-08-21T12:30:58;118349.16;;;-140.64;100.00
7930;BME280;4010;42.698;23.124;2022-08-21T12:33:28;118349.16;;;-140.64;100.00
7930;BME280;4010;42.698;23.124;2022-08-21T12:36:04;118349.16;;;-140.64;100.00
7930;BME280;4010;42.698;23.124;2022-08-21T12:38:41;118349.16;;;-140.64;100.00
7930;BME280;4010;42.698;23.124;2022-08-21T12:41:16;118349.16;;;-140.64;100.00
7930;BME280;4010;42.698;23.124;2022-08-21T12:43:51;118349.16;;;-140.64;100.00
7930;BME280;4010;42.698;23.124;2022-08-21T12:46:29;118349.16;;;-140.64;100.00
7930;BME280;4010;42.698;23.124;2022-08-21T12:49:00;118349.16;;;-140.64;100.00
7930;BME280;4010;42.698;23.124;2022-08-21T12:51:32;118349.16;;;-140.64;100.00
7930;BME280;4010;42.698;23.124;2022-08-21T12:54:00;118349.16;;;-140.64;100.00